sensor_id;sensor_type;location;lat;lon;timestamp;P1;durP1;ratioP1;P2;durP2;ratioP2
42662;SDS011;44330;51.360;6.686;2022-11-15T00:01:17;19.13;;;10.18;;
42662;SDS011;44330;51.360;6.686;2022-11-15T00:03:43;20.25;;;10.00;;
42662;SDS011;44330;51.360;6.686;2022-11-15T00:06:09;15.75;;;9.75;;
42662;SDS011;44330;51.360;6.686;2022-11-15T00:08:35;16.48;;;9.48;;
42662;SDS011;44330;51.360;6.686;2022-11-15T00:11:01;17.63;;;9.38;;
42662;SDS011;44330;51.360;6.686;2022-11-15T00:13:27;15.60;;;9.68;;
42662;SDS011;44330;51.360;6.686;2022-11-15T00:15:56;14.52;;;9.40;;
42662;SDS011;44330;51.360;6.686;2022-11-15T00:18:23;12.23;;;8.82;;
42662;SDS011;44330;51.360;6.686;2022-11-15T00:20:49;16.08;;;9.27;;
42662;SDS011;44330;51.360;6.686;2022-11-15T00:23:14;18.55;;;9.73;;
42662;SDS011;44330;51.360;6.686;2022-11-15T00:25:41;12.82;;;8.77;;
42662;SDS011;44330;51.360;6.686;2022-11-15T00:28:06;16.85;;;10.02;;
42662;SDS011;44330;51.360;6.686;2022-11-15T00:30:32;17.67;;;9.40;;
42662;SDS011;44330;51.360;6.686;2022-11-15T00:33:03;20.58;;;9.57;;
42662;SDS011;44330;51.360;6.686;2022-11-15T00:35:31;16.40;;;8.80;;
42662;SDS011;44330;51.360;6.686;2022-11-15T00:37:57;13.43;;;8.20;;
42662;SDS011;44330;51.360;6.686;2022-11-15T00:40:23;15.68;;;8.70;;
42662;SDS011;44330;51.360;6.686;2022-11-15T00:42:48;12.68;;;8.68;;
42662;SDS011;44330;51.360;6.686;2022-11-15T00:45:14;17.15;;;8.93;;
42662;SDS011;44330;51.360;6.686;2022-11-15T00:47:39;15.05;;;8.82;;
42662;SDS011;44330;51.360;6.686;2022-11-15T00:50:05;15.15;;;9.18;;
42662;SDS011;44330;51.360;6.686;2022-11-15T00:52:31;13.90;;;7.95;;
42662;SDS011;44330;51.360;6.686;2022-11-15T00:54:56;12.68;;;8.95;;
42662;SDS011;44330;51.360;6.686;2022-11-15T00:57:22;15.88;;;8.68;;
42662;SDS011;44330;51.360;6.686;2022-11-15T00:59:48;13.95;;;8.57;;
42662;SDS011;44330;51.360;6.686;2022-11-15T01:02:13;16.27;;;9.25;;
42662;SDS011;44330;51.360;6.686;2022-11-15T01:04:39;13.40;;;8.35;;
42662;SDS011;44330;51.360;6.686;2022-11-15T01:07:04;18.75;;;8.80;;
42662;SDS011;44330;51.360;6.686;2022-11-15T01:09:30;18.00;;;9.27;;
42662;SDS011;44330;51.360;6.686;2022-11-15T01:11:55;17.20;;;9.00;;
42662;SDS011;44330;51.360;6.686;2022-11-15T01:14:21;18.50;;;9.55;;
42662;SDS011;44330;51.360;6.686;2022-11-15T01:16:46;12.95;;;7.97;;
42662;SDS011;44330;51.360;6.686;2022-11-15T01:19:12;12.65;;;8.05;;
42662;SDS011;44330;51.360;6.686;2022-11-15T01:21:37;16.30;;;9.02;;
42662;SDS011;44330;51.360;6.686;2022-11-15T01:24:03;15.63;;;8.95;;
42662;SDS011;44330;51.360;6.686;2022-11-15T01:26:29;14.63;;;8.32;;
42662;SDS011;44330;51.360;6.686;2022-11-15T01:28:54;19.40;;;8.85;;
42662;SDS011;44330;51.360;6.686;2022-11-15T01:31:20;13.82;;;8.60;;
42662;SDS011;44330;51.360;6.686;2022-11-15T01:33:47;14.90;;;8.82;;
42662;SDS011;44330;51.360;6.686;2022-11-15T01:36:14;11.75;;;8.10;;
42662;SDS011;44330;51.360;6.686;2022-11-15T01:38:43;13.95;;;8.20;;
42662;SDS011;44330;51.360;6.686;2022-11-15T01:41:14;15.93;;;8.45;;
42662;SDS011;44330;51.360;6.686;2022-11-15T01:43:42;12.15;;;7.63;;
42662;SDS011;44330;51.360;6.686;2022-11-15T01:48:56;13.27;;;7.97;;
42662;SDS011;44330;51.360;6.686;2022-11-15T01:51:25;14.23;;;8.02;;
42662;SDS011;44330;51.360;6.686;2022-11-15T01:53:55;15.20;;;8.32;;
42662;SDS011;44330;51.360;6.686;2022-11-15T01:56:24;11.43;;;8.20;;
42662;SDS011;44330;51.360;6.686;2022-11-15T01:58:52;13.43;;;7.45;;
42662;SDS011;44330;51.360;6.686;2022-11-15T02:01:20;16.10;;;8.00;;
42662;SDS011;44330;51.360;6.686;2022-11-15T02:06:35;19.73;;;8.85;;
42662;SDS011;44330;51.360;6.686;2022-11-15T02:09:01;13.55;;;7.47;;
42662;SDS011;44330;51.360;6.686;2022-11-15T02:11:27;17.17;;;8.32;;
42662;SDS011;44330;51.360;6.686;2022-11-15T02:13:53;16.27;;;8.20;;
42662;SDS011;44330;51.360;6.686;2022-11-15T02:19:23;12.52;;;8.07;;
42662;SDS011;44330;51.360;6.686;2022-11-15T02:24:57;16.77;;;8.82;;
42662;SDS011;44330;51.360;6.686;2022-11-15T02:27:42;14.48;;;8.20;;
42662;SDS011;44330;51.360;6.686;2022-11-15T02:36:01;15.70;;;7.97;;
42662;SDS011;44330;51.360;6.686;2022-11-15T02:41:11;11.98;;;6.25;;
42662;SDS011;44330;51.360;6.686;2022-11-15T02:43:48;12.10;;;7.88;;
42662;SDS011;44330;51.360;6.686;2022-11-15T02:49:13;15.50;;;8.18;;
42662;SDS011;44330;51.360;6.686;2022-11-15T02:51:39;11.80;;;7.50;;
42662;SDS011;44330;51.360;6.686;2022-11-15T02:54:10;12.77;;;7.90;;
42662;SDS011;44330;51.360;6.686;2022-11-15T02:56:43;12.18;;;7.57;;
42662;SDS011;44330;51.360;6.686;2022-11-15T02:59:17;13.65;;;9.20;;
42662;SDS011;44330;51.360;6.686;2022-11-15T03:04:53;12.57;;;8.35;;
42662;SDS011;44330;51.360;6.686;2022-11-15T03:07:29;14.35;;;8.15;;
42662;SDS011;44330;51.360;6.686;2022-11-15T03:10:25;11.88;;;7.75;;
42662;SDS011;44330;51.360;6.686;2022-11-15T03:12:59;15.57;;;8.35;;
42662;SDS011;44330;51.360;6.686;2022-11-15T03:15:37;11.27;;;7.90;;
42662;SDS011;44330;51.360;6.686;2022-11-15T03:18:10;13.15;;;7.78;;
42662;SDS011;44330;51.360;6.686;2022-11-15T03:20:45;12.23;;;8.38;;
42662;SDS011;44330;51.360;6.686;2022-11-15T03:23:13;13.82;;;7.35;;
42662;SDS011;44330;51.360;6.686;2022-11-15T03:25:42;13.77;;;8.70;;
42662;SDS011;44330;51.360;6.686;2022-11-15T03:28:14;16.25;;;8.63;;
42662;SDS011;44330;51.360;6.686;2022-11-15T03:30:46;13.15;;;8.35;;
42662;SDS011;44330;51.360;6.686;2022-11-15T03:33:14;13.52;;;7.93;;
42662;SDS011;44330;51.360;6.686;2022-11-15T03:35:41;14.38;;;7.95;;
42662;SDS011;44330;51.360;6.686;2022-11-15T03:38:24;12.23;;;8.40;;
42662;SDS011;44330;51.360;6.686;2022-11-15T03:40:57;14.18;;;7.90;;
42662;SDS011;44330;51.360;6.686;2022-11-15T03:46:08;17.02;;;8.13;;
42662;SDS011;44330;51.360;6.686;2022-11-15T03:48:39;16.25;;;9.00;;
42662;SDS011;44330;51.360;6.686;2022-11-15T03:51:11;12.15;;;8.07;;
42662;SDS011;44330;51.360;6.686;2022-11-15T03:53:38;14.48;;;7.63;;
42662;SDS011;44330;51.360;6.686;2022-11-15T03:56:03;11.32;;;7.90;;
42662;SDS011;44330;51.360;6.686;2022-11-15T03:58:29;14.35;;;7.82;;
42662;SDS011;44330;51.360;6.686;2022-11-15T04:00:54;12.55;;;7.57;;
42662;SDS011;44330;51.360;6.686;2022-11-15T04:03:20;10.40;;;7.32;;
42662;SDS011;44330;51.360;6.686;2022-11-15T04:05:45;10.15;;;7.22;;
42662;SDS011;44330;51.360;6.686;2022-11-15T04:08:11;9.18;;;7.00;;
42662;SDS011;44330;51.360;6.686;2022-11-15T04:10:36;10.25;;;7.32;;
42662;SDS011;44330;51.360;6.686;2022-11-15T04:13:02;16.00;;;7.20;;
42662;SDS011;44330;51.360;6.686;2022-11-15T04:15:27;12.90;;;7.63;;
42662;SDS011;44330;51.360;6.686;2022-11-15T04:17:55;12.38;;;7.20;;
42662;SDS011;44330;51.360;6.686;2022-11-15T04:20:22;13.82;;;7.32;;
42662;SDS011;44330;51.360;6.686;2022-11-15T04:23:12;10.45;;;7.47;;
42662;SDS011;44330;51.360;6.686;2022-11-15T04:26:01;15.45;;;6.90;;
42662;SDS011;44330;51.360;6.686;2022-11-15T04:30:55;11.25;;;6.43;;
42662;SDS011;44330;51.360;6.686;2022-11-15T04:33:21;11.30;;;6.78;;
42662;SDS011;44330;51.360;6.686;2022-11-15T04:35:46;10.13;;;7.07;;
42662;SDS011;44330;51.360;6.686;2022-11-15T04:38:32;10.95;;;6.65;;
42662;SDS011;44330;51.360;6.686;2022-11-15T04:40:58;13.52;;;7.35;;
42662;SDS011;44330;51.360;6.686;2022-11-15T04:43:23;11.80;;;7.40;;
42662;SDS011;44330;51.360;6.686;2022-11-15T04:45:49;14.73;;;7.70;;
42662;SDS011;44330;51.360;6.686;2022-11-15T04:48:14;13.38;;;6.47;;
42662;SDS011;44330;51.360;6.686;2022-11-15T04:50:40;9.63;;;6.75;;
42662;SDS011;44330;51.360;6.686;2022-11-15T04:53:06;13.35;;;7.18;;
42662;SDS011;44330;51.360;6.686;2022-11-15T04:55:31;12.15;;;6.82;;
42662;SDS011;44330;51.360;6.686;2022-11-15T04:57:57;10.43;;;6.88;;
42662;SDS011;44330;51.360;6.686;2022-11-15T05:00:24;11.18;;;6.63;;
42662;SDS011;44330;51.360;6.686;2022-11-15T05:02:50;13.80;;;7.10;;
42662;SDS011;44330;51.360;6.686;2022-11-15T05:05:35;16.95;;;7.70;;
42662;SDS011;44330;51.360;6.686;2022-11-15T05:08:00;8.25;;;6.00;;
42662;SDS011;44330;51.360;6.686;2022-11-15T05:10:26;9.68;;;6.43;;
42662;SDS011;44330;51.360;6.686;2022-11-15T05:12:51;11.10;;;6.47;;
42662;SDS011;44330;51.360;6.686;2022-11-15T05:15:17;13.95;;;6.43;;
42662;SDS011;44330;51.360;6.686;2022-11-15T05:17:42;8.45;;;6.07;;
42662;SDS011;44330;51.360;6.686;2022-11-15T05:20:08;11.50;;;6.10;;
42662;SDS011;44330;51.360;6.686;2022-11-15T05:22:34;7.93;;;5.68;;
42662;SDS011;44330;51.360;6.686;2022-11-15T05:25:00;9.65;;;6.30;;
42662;SDS011;44330;51.360;6.686;2022-11-15T05:27:25;9.63;;;5.90;;
42662;SDS011;44330;51.360;6.686;2022-11-15T05:29:51;11.10;;;6.30;;
42662;SDS011;44330;51.360;6.686;2022-11-15T05:32:16;14.57;;;6.70;;
42662;SDS011;44330;51.360;6.686;2022-11-15T05:34:43;8.75;;;5.82;;
42662;SDS011;44330;51.360;6.686;2022-11-15T05:37:09;8.25;;;6.03;;
42662;SDS011;44330;51.360;6.686;2022-11-15T05:39:35;8.57;;;5.82;;
42662;SDS011;44330;51.360;6.686;2022-11-15T05:42:10;9.30;;;6.18;;
42662;SDS011;44330;51.360;6.686;2022-11-15T05:44:38;11.65;;;6.60;;
42662;SDS011;44330;51.360;6.686;2022-11-15T05:47:07;11.23;;;6.25;;
42662;SDS011;44330;51.360;6.686;2022-11-15T05:49:35;7.20;;;6.22;;
42662;SDS011;44330;51.360;6.686;2022-11-15T05:52:04;15.70;;;6.63;;
42662;SDS011;44330;51.360;6.686;2022-11-15T05:54:32;11.13;;;6.25;;
42662;SDS011;44330;51.360;6.686;2022-11-15T05:56:59;11.23;;;6.75;;
42662;SDS011;44330;51.360;6.686;2022-11-15T05:59:25;11.23;;;6.82;;
42662;SDS011;44330;51.360;6.686;2022-11-15T06:01:52;9.85;;;6.50;;
42662;SDS011;44330;51.360;6.686;2022-11-15T06:04:18;8.45;;;6.55;;
42662;SDS011;44330;51.360;6.686;2022-11-15T06:06:43;9.43;;;6.10;;
42662;SDS011;44330;51.360;6.686;2022-11-15T06:09:09;9.23;;;6.32;;
42662;SDS011;44330;51.360;6.686;2022-11-15T06:11:34;8.35;;;6.43;;
42662;SDS011;44330;51.360;6.686;2022-11-15T06:14:00;12.75;;;6.68;;
42662;SDS011;44330;51.360;6.686;2022-11-15T06:16:26;10.43;;;7.07;;
42662;SDS011;44330;51.360;6.686;2022-11-15T06:18:51;9.98;;;6.43;;
42662;SDS011;44330;51.360;6.686;2022-11-15T06:21:16;9.23;;;6.53;;
42662;SDS011;44330;51.360;6.686;2022-11-15T06:23:42;11.27;;;6.97;;
42662;SDS011;44330;51.360;6.686;2022-11-15T06:26:08;10.23;;;6.10;;
42662;SDS011;44330;51.360;6.686;2022-11-15T06:28:33;10.35;;;6.15;;
42662;SDS011;44330;51.360;6.686;2022-11-15T06:31:05;12.45;;;6.65;;
42662;SDS011;44330;51.360;6.686;2022-11-15T06:33:33;11.25;;;6.10;;
42662;SDS011;44330;51.360;6.686;2022-11-15T06:36:09;9.85;;;6.70;;
42662;SDS011;44330;51.360;6.686;2022-11-15T06:38:38;11.50;;;6.38;;
42662;SDS011;44330;51.360;6.686;2022-11-15T06:41:05;7.93;;;5.60;;
42662;SDS011;44330;51.360;6.686;2022-11-15T06:43:33;9.95;;;6.30;;
42662;SDS011;44330;51.360;6.686;2022-11-15T06:45:59;9.05;;;6.07;;
42662;SDS011;44330;51.360;6.686;2022-11-15T06:48:25;10.48;;;5.88;;
42662;SDS011;44330;51.360;6.686;2022-11-15T06:50:52;9.55;;;5.95;;
42662;SDS011;44330;51.360;6.686;2022-11-15T06:53:19;10.65;;;5.78;;
42662;SDS011;44330;51.360;6.686;2022-11-15T06:55:44;9.68;;;5.38;;
42662;SDS011;44330;51.360;6.686;2022-11-15T06:58:10;8.35;;;6.15;;
42662;SDS011;44330;51.360;6.686;2022-11-15T07:00:36;7.68;;;6.13;;
42662;SDS011;44330;51.360;6.686;2022-11-15T07:03:01;7.65;;;5.57;;
42662;SDS011;44330;51.360;6.686;2022-11-15T07:05:27;9.00;;;5.53;;
42662;SDS011;44330;51.360;6.686;2022-11-15T07:07:54;8.48;;;5.88;;
42662;SDS011;44330;51.360;6.686;2022-11-15T07:10:20;7.53;;;5.05;;
42662;SDS011;44330;51.360;6.686;2022-11-15T07:12:47;9.43;;;4.93;;
42662;SDS011;44330;51.360;6.686;2022-11-15T07:15:14;7.70;;;5.00;;
42662;SDS011;44330;51.360;6.686;2022-11-15T07:17:40;7.97;;;4.97;;
42662;SDS011;44330;51.360;6.686;2022-11-15T07:20:06;8.70;;;4.35;;
42662;SDS011;44330;51.360;6.686;2022-11-15T07:22:32;17.83;;;4.78;;
42662;SDS011;44330;51.360;6.686;2022-11-15T07:24:58;12.27;;;4.22;;
42662;SDS011;44330;51.360;6.686;2022-11-15T07:27:23;12.55;;;4.57;;
42662;SDS011;44330;51.360;6.686;2022-11-15T07:29:49;6.03;;;3.95;;
42662;SDS011;44330;51.360;6.686;2022-11-15T07:32:14;5.78;;;3.80;;
42662;SDS011;44330;51.360;6.686;2022-11-15T07:34:40;7.10;;;3.55;;
42662;SDS011;44330;51.360;6.686;2022-11-15T07:37:05;7.72;;;3.17;;
42662;SDS011;44330;51.360;6.686;2022-11-15T07:39:31;8.07;;;3.90;;
42662;SDS011;44330;51.360;6.686;2022-11-15T07:41:56;4.82;;;3.08;;
42662;SDS011;44330;51.360;6.686;2022-11-15T07:44:42;7.05;;;2.80;;
42662;SDS011;44330;51.360;6.686;2022-11-15T07:47:07;3.83;;;1.95;;
42662;SDS011;44330;51.360;6.686;2022-11-15T07:49:33;1.58;;;1.10;;
42662;SDS011;44330;51.360;6.686;2022-11-15T07:51:58;6.82;;;1.10;;
42662;SDS011;44330;51.360;6.686;2022-11-15T07:54:24;1.88;;;0.85;;
42662;SDS011;44330;51.360;6.686;2022-11-15T07:56:49;5.22;;;1.02;;
42662;SDS011;44330;51.360;6.686;2022-11-15T07:59:15;3.05;;;0.80;;
42662;SDS011;44330;51.360;6.686;2022-11-15T08:01:40;5.82;;;1.00;;
42662;SDS011;44330;51.360;6.686;2022-11-15T08:04:06;1.58;;;0.73;;
42662;SDS011;44330;51.360;6.686;2022-11-15T08:06:31;2.25;;;0.90;;
42662;SDS011;44330;51.360;6.686;2022-11-15T08:08:57;1.27;;;0.73;;
42662;SDS011;44330;51.360;6.686;2022-11-15T08:11:23;6.57;;;1.05;;
42662;SDS011;44330;51.360;6.686;2022-11-15T08:13:48;6.78;;;0.90;;
42662;SDS011;44330;51.360;6.686;2022-11-15T08:16:14;4.90;;;1.00;;
42662;SDS011;44330;51.360;6.686;2022-11-15T08:18:39;4.88;;;0.80;;
42662;SDS011;44330;51.360;6.686;2022-11-15T08:21:05;2.17;;;1.08;;
42662;SDS011;44330;51.360;6.686;2022-11-15T08:23:30;5.03;;;1.17;;
42662;SDS011;44330;51.360;6.686;2022-11-15T08:26:00;3.42;;;1.88;;
42662;SDS011;44330;51.360;6.686;2022-11-15T08:28:28;8.93;;;3.00;;
42662;SDS011;44330;51.360;6.686;2022-11-15T08:30:54;2.53;;;1.95;;
42662;SDS011;44330;51.360;6.686;2022-11-15T08:33:19;4.90;;;1.73;;
42662;SDS011;44330;51.360;6.686;2022-11-15T08:35:45;3.72;;;2.10;;
42662;SDS011;44330;51.360;6.686;2022-11-15T08:38:11;3.45;;;2.00;;
42662;SDS011;44330;51.360;6.686;2022-11-15T08:40:36;7.70;;;2.20;;
42662;SDS011;44330;51.360;6.686;2022-11-15T08:43:02;3.35;;;1.88;;
42662;SDS011;44330;51.360;6.686;2022-11-15T08:45:28;3.20;;;1.77;;
42662;SDS011;44330;51.360;6.686;2022-11-15T08:47:55;4.38;;;1.63;;
42662;SDS011;44330;51.360;6.686;2022-11-15T08:50:21;2.80;;;1.17;;
42662;SDS011;44330;51.360;6.686;2022-11-15T08:52:47;4.45;;;1.20;;
42662;SDS011;44330;51.360;6.686;2022-11-15T08:55:15;5.30;;;1.33;;
42662;SDS011;44330;51.360;6.686;2022-11-15T08:57:41;2.05;;;1.33;;
42662;SDS011;44330;51.360;6.686;2022-11-15T09:00:06;1.25;;;0.80;;
42662;SDS011;44330;51.360;6.686;2022-11-15T09:02:32;4.43;;;2.58;;
42662;SDS011;44330;51.360;6.686;2022-11-15T09:04:58;8.82;;;2.60;;
42662;SDS011;44330;51.360;6.686;2022-11-15T09:07:23;2.95;;;2.28;;
42662;SDS011;44330;51.360;6.686;2022-11-15T09:09:49;4.45;;;2.00;;
42662;SDS011;44330;51.360;6.686;2022-11-15T09:12:15;3.70;;;1.90;;
42662;SDS011;44330;51.360;6.686;2022-11-15T09:14:40;5.65;;;2.20;;
42662;SDS011;44330;51.360;6.686;2022-11-15T09:17:09;5.63;;;2.67;;
42662;SDS011;44330;51.360;6.686;2022-11-15T09:19:34;5.75;;;2.60;;
42662;SDS011;44330;51.360;6.686;2022-11-15T09:22:00;4.13;;;2.92;;
42662;SDS011;44330;51.360;6.686;2022-11-15T09:24:26;5.32;;;3.22;;
42662;SDS011;44330;51.360;6.686;2022-11-15T09:26:51;7.50;;;3.13;;
42662;SDS011;44330;51.360;6.686;2022-11-15T09:29:17;5.95;;;3.03;;
42662;SDS011;44330;51.360;6.686;2022-11-15T09:31:43;6.78;;;3.30;;
42662;SDS011;44330;51.360;6.686;2022-11-15T09:34:09;6.35;;;2.70;;
42662;SDS011;44330;51.360;6.686;2022-11-15T09:36:34;6.00;;;3.22;;
42662;SDS011;44330;51.360;6.686;2022-11-15T09:39:00;7.30;;;2.80;;
42662;SDS011;44330;51.360;6.686;2022-11-15T09:49:40;4.05;;;1.90;;
42662;SDS011;44330;51.360;6.686;2022-11-15T09:52:06;3.58;;;1.60;;
42662;SDS011;44330;51.360;6.686;2022-11-15T09:54:35;5.70;;;2.10;;
42662;SDS011;44330;51.360;6.686;2022-11-15T09:57:17;3.33;;;1.60;;
42662;SDS011;44330;51.360;6.686;2022-11-15T10:02:43;2.72;;;1.15;;
42662;SDS011;44330;51.360;6.686;2022-11-15T10:05:20;2.80;;;1.27;;
42662;SDS011;44330;51.360;6.686;2022-11-15T10:11:26;2.80;;;1.38;;
42662;SDS011;44330;51.360;6.686;2022-11-15T10:13:58;3.67;;;1.20;;
42662;SDS011;44330;51.360;6.686;2022-11-15T10:21:57;4.35;;;1.08;;
42662;SDS011;44330;51.360;6.686;2022-11-15T10:24:25;4.47;;;1.30;;
42662;SDS011;44330;51.360;6.686;2022-11-15T10:26:53;6.60;;;1.27;;
42662;SDS011;44330;51.360;6.686;2022-11-15T10:29:20;9.73;;;1.45;;
42662;SDS011;44330;51.360;6.686;2022-11-15T10:31:47;4.63;;;1.20;;
42662;SDS011;44330;51.360;6.686;2022-11-15T10:34:14;5.38;;;1.52;;
42662;SDS011;44330;51.360;6.686;2022-11-15T10:36:58;2.22;;;1.10;;
42662;SDS011;44330;51.360;6.686;2022-11-15T10:39:26;6.28;;;0.98;;
42662;SDS011;44330;51.360;6.686;2022-11-15T10:41:52;4.35;;;1.10;;
42662;SDS011;44330;51.360;6.686;2022-11-15T10:44:23;1.95;;;1.15;;
42662;SDS011;44330;51.360;6.686;2022-11-15T10:49:21;6.40;;;1.30;;
42662;SDS011;44330;51.360;6.686;2022-11-15T10:51:47;2.28;;;1.20;;
42662;SDS011;44330;51.360;6.686;2022-11-15T10:54:17;3.20;;;1.30;;
42662;SDS011;44330;51.360;6.686;2022-11-15T10:56:53;5.65;;;1.52;;
42662;SDS011;44330;51.360;6.686;2022-11-15T10:59:28;2.40;;;1.45;;
42662;SDS011;44330;51.360;6.686;2022-11-15T11:01:56;3.10;;;1.58;;
42662;SDS011;44330;51.360;6.686;2022-11-15T11:04:22;2.83;;;1.55;;
42662;SDS011;44330;51.360;6.686;2022-11-15T11:06:51;2.65;;;1.05;;
42662;SDS011;44330;51.360;6.686;2022-11-15T11:09:30;7.13;;;1.25;;
42662;SDS011;44330;51.360;6.686;2022-11-15T11:11:57;3.42;;;1.58;;
42662;SDS011;44330;51.360;6.686;2022-11-15T11:14:24;3.95;;;0.90;;
42662;SDS011;44330;51.360;6.686;2022-11-15T11:16:53;4.50;;;1.33;;
42662;SDS011;44330;51.360;6.686;2022-11-15T11:35:29;1.88;;;0.80;;
42662;SDS011;44330;51.360;6.686;2022-11-15T11:38:00;5.53;;;1.52;;
42662;SDS011;44330;51.360;6.686;2022-11-15T11:46:37;7.30;;;1.27;;
42662;SDS011;44330;51.360;6.686;2022-11-15T11:49:52;8.65;;;1.67;;
42662;SDS011;44330;51.360;6.686;2022-11-15T11:52:47;8.10;;;0.93;;
42662;SDS011;44330;51.360;6.686;2022-11-15T11:55:31;6.75;;;1.33;;
42662;SDS011;44330;51.360;6.686;2022-11-15T12:05:54;6.97;;;1.20;;
42662;SDS011;44330;51.360;6.686;2022-11-15T12:11:34;4.45;;;1.00;;
42662;SDS011;44330;51.360;6.686;2022-11-15T12:14:15;3.88;;;0.70;;
42662;SDS011;44330;51.360;6.686;2022-11-15T12:17:02;3.83;;;0.85;;
42662;SDS011;44330;51.360;6.686;2022-11-15T12:19:28;2.55;;;1.10;;
42662;SDS011;44330;51.360;6.686;2022-11-15T12:24:46;2.92;;;0.85;;
42662;SDS011;44330;51.360;6.686;2022-11-15T12:27:45;3.05;;;0.90;;
42662;SDS011;44330;51.360;6.686;2022-11-15T12:30:17;5.80;;;1.00;;
42662;SDS011;44330;51.360;6.686;2022-11-15T12:32:57;2.40;;;0.93;;
42662;SDS011;44330;51.360;6.686;2022-11-15T12:37:59;3.22;;;0.88;;
42662;SDS011;44330;51.360;6.686;2022-11-15T12:42:58;3.00;;;1.13;;
42662;SDS011;44330;51.360;6.686;2022-11-15T12:45:34;3.30;;;0.90;;
42662;SDS011;44330;51.360;6.686;2022-11-15T12:56:35;6.45;;;2.20;;
42662;SDS011;44330;51.360;6.686;2022-11-15T13:06:48;6.90;;;1.20;;
42662;SDS011;44330;51.360;6.686;2022-11-15T13:12:00;4.93;;;1.13;;
42662;SDS011;44330;51.360;6.686;2022-11-15T13:17:03;3.13;;;1.42;;
42662;SDS011;44330;51.360;6.686;2022-11-15T13:19:37;2.47;;;0.60;;
42662;SDS011;44330;51.360;6.686;2022-11-15T13:22:08;3.38;;;0.80;;
42662;SDS011;44330;51.360;6.686;2022-11-15T13:24:53;3.22;;;0.70;;
42662;SDS011;44330;51.360;6.686;2022-11-15T13:27:19;3.22;;;0.90;;
42662;SDS011;44330;51.360;6.686;2022-11-15T13:29:45;3.05;;;0.80;;
42662;SDS011;44330;51.360;6.686;2022-11-15T13:32:12;3.35;;;0.93;;
42662;SDS011;44330;51.360;6.686;2022-11-15T13:34:38;4.60;;;0.90;;
42662;SDS011;44330;51.360;6.686;2022-11-15T13:39:46;7.68;;;1.30;;
42662;SDS011;44330;51.360;6.686;2022-11-15T13:42:16;4.43;;;1.05;;
42662;SDS011;44330;51.360;6.686;2022-11-15T13:44:59;4.40;;;1.15;;
42662;SDS011;44330;51.360;6.686;2022-11-15T13:47:27;3.90;;;0.90;;
42662;SDS011;44330;51.360;6.686;2022-11-15T13:49:57;2.97;;;0.88;;
42662;SDS011;44330;51.360;6.686;2022-11-15T13:52:25;2.85;;;0.98;;
42662;SDS011;44330;51.360;6.686;2022-11-15T13:57:48;2.42;;;1.00;;
42662;SDS011;44330;51.360;6.686;2022-11-15T14:00:31;3.83;;;0.90;;
42662;SDS011;44330;51.360;6.686;2022-11-15T14:03:12;3.90;;;0.82;;
42662;SDS011;44330;51.360;6.686;2022-11-15T14:05:46;3.53;;;0.70;;
42662;SDS011;44330;51.360;6.686;2022-11-15T14:08:31;1.92;;;0.95;;
42662;SDS011;44330;51.360;6.686;2022-11-15T14:11:12;8.48;;;1.40;;
42662;SDS011;44330;51.360;6.686;2022-11-15T14:13:38;3.15;;;0.98;;
42662;SDS011;44330;51.360;6.686;2022-11-15T14:16:14;4.88;;;0.93;;
42662;SDS011;44330;51.360;6.686;2022-11-15T14:18:51;3.13;;;0.90;;
42662;SDS011;44330;51.360;6.686;2022-11-15T14:21:18;3.08;;;1.45;;
42662;SDS011;44330;51.360;6.686;2022-11-15T14:23:44;2.60;;;1.10;;
42662;SDS011;44330;51.360;6.686;2022-11-15T14:29:29;3.75;;;1.35;;
42662;SDS011;44330;51.360;6.686;2022-11-15T14:34:41;4.88;;;1.40;;
42662;SDS011;44330;51.360;6.686;2022-11-15T14:37:26;5.07;;;1.38;;
42662;SDS011;44330;51.360;6.686;2022-11-15T14:39:56;7.85;;;1.55;;
42662;SDS011;44330;51.360;6.686;2022-11-15T14:42:22;2.85;;;1.23;;
42662;SDS011;44330;51.360;6.686;2022-11-15T14:44:48;5.53;;;1.30;;
42662;SDS011;44330;51.360;6.686;2022-11-15T14:47:14;3.53;;;1.30;;
42662;SDS011;44330;51.360;6.686;2022-11-15T14:49:40;3.10;;;1.20;;
42662;SDS011;44330;51.360;6.686;2022-11-15T14:52:39;2.08;;;1.30;;
42662;SDS011;44330;51.360;6.686;2022-11-15T14:55:00;7.07;;;1.60;;
42662;SDS011;44330;51.360;6.686;2022-11-15T14:57:27;3.67;;;1.30;;
42662;SDS011;44330;51.360;6.686;2022-11-15T14:59:53;5.07;;;1.70;;
42662;SDS011;44330;51.360;6.686;2022-11-15T15:02:23;6.25;;;1.48;;
42662;SDS011;44330;51.360;6.686;2022-11-15T15:04:50;3.28;;;1.35;;
42662;SDS011;44330;51.360;6.686;2022-11-15T15:07:16;6.75;;;1.80;;
42662;SDS011;44330;51.360;6.686;2022-11-15T15:09:43;3.47;;;1.70;;
42662;SDS011;44330;51.360;6.686;2022-11-15T15:12:19;4.95;;;1.98;;
42662;SDS011;44330;51.360;6.686;2022-11-15T15:14:46;4.05;;;1.80;;
42662;SDS011;44330;51.360;6.686;2022-11-15T15:17:13;3.13;;;2.00;;
42662;SDS011;44330;51.360;6.686;2022-11-15T15:19:39;4.57;;;2.63;;
42662;SDS011;44330;51.360;6.686;2022-11-15T15:22:04;3.13;;;1.77;;
42662;SDS011;44330;51.360;6.686;2022-11-15T15:24:30;6.68;;;2.00;;
42662;SDS011;44330;51.360;6.686;2022-11-15T15:26:56;7.30;;;2.28;;
42662;SDS011;44330;51.360;6.686;2022-11-15T15:29:22;3.60;;;2.03;;
42662;SDS011;44330;51.360;6.686;2022-11-15T15:31:47;10.18;;;2.03;;
42662;SDS011;44330;51.360;6.686;2022-11-15T15:34:13;3.22;;;2.25;;
42662;SDS011;44330;51.360;6.686;2022-11-15T15:36:38;5.85;;;1.80;;
42662;SDS011;44330;51.360;6.686;2022-11-15T15:39:04;3.30;;;1.83;;
42662;SDS011;44330;51.360;6.686;2022-11-15T15:41:29;4.72;;;2.35;;
42662;SDS011;44330;51.360;6.686;2022-11-15T15:43:55;6.20;;;2.30;;
42662;SDS011;44330;51.360;6.686;2022-11-15T15:46:20;3.72;;;2.05;;
42662;SDS011;44330;51.360;6.686;2022-11-15T15:48:46;2.92;;;1.63;;
42662;SDS011;44330;51.360;6.686;2022-11-15T15:51:12;6.68;;;2.30;;
42662;SDS011;44330;51.360;6.686;2022-11-15T15:53:38;2.78;;;1.80;;
42662;SDS011;44330;51.360;6.686;2022-11-15T15:56:04;6.70;;;2.22;;
42662;SDS011;44330;51.360;6.686;2022-11-15T15:58:32;3.63;;;2.05;;
42662;SDS011;44330;51.360;6.686;2022-11-15T16:00:58;3.60;;;1.67;;
42662;SDS011;44330;51.360;6.686;2022-11-15T16:03:24;4.80;;;2.10;;
42662;SDS011;44330;51.360;6.686;2022-11-15T16:05:49;8.77;;;2.28;;
42662;SDS011;44330;51.360;6.686;2022-11-15T16:08:19;3.13;;;1.98;;
42662;SDS011;44330;51.360;6.686;2022-11-15T16:10:46;4.10;;;2.50;;
42662;SDS011;44330;51.360;6.686;2022-11-15T16:13:12;6.03;;;1.95;;
42662;SDS011;44330;51.360;6.686;2022-11-15T16:15:37;4.43;;;2.13;;
42662;SDS011;44330;51.360;6.686;2022-11-15T16:18:04;5.55;;;2.17;;
42662;SDS011;44330;51.360;6.686;2022-11-15T16:20:34;4.43;;;2.42;;
42662;SDS011;44330;51.360;6.686;2022-11-15T16:23:03;12.50;;;1.88;;
42662;SDS011;44330;51.360;6.686;2022-11-15T16:25:30;5.85;;;1.77;;
42662;SDS011;44330;51.360;6.686;2022-11-15T16:28:01;6.50;;;1.90;;
42662;SDS011;44330;51.360;6.686;2022-11-15T16:30:27;3.63;;;1.58;;
42662;SDS011;44330;51.360;6.686;2022-11-15T16:32:52;2.60;;;1.60;;
42662;SDS011;44330;51.360;6.686;2022-11-15T16:35:18;4.15;;;1.92;;
42662;SDS011;44330;51.360;6.686;2022-11-15T16:37:44;9.77;;;2.38;;
42662;SDS011;44330;51.360;6.686;2022-11-15T16:40:25;3.65;;;1.60;;
42662;SDS011;44330;51.360;6.686;2022-11-15T16:42:52;2.92;;;1.80;;
42662;SDS011;44330;51.360;6.686;2022-11-15T16:45:20;5.50;;;1.55;;
42662;SDS011;44330;51.360;6.686;2022-11-15T16:47:45;2.67;;;1.77;;
42662;SDS011;44330;51.360;6.686;2022-11-15T16:50:18;6.75;;;2.10;;
42662;SDS011;44330;51.360;6.686;2022-11-15T16:52:48;5.32;;;1.70;;
42662;SDS011;44330;51.360;6.686;2022-11-15T16:55:14;3.03;;;1.30;;
42662;SDS011;44330;51.360;6.686;2022-11-15T16:57:40;3.83;;;1.48;;
42662;SDS011;44330;51.360;6.686;2022-11-15T17:00:06;5.57;;;1.73;;